Time;durP1;ratioP1;P1;durP2;ratioP2;P2;SDS_P1;SDS_P2;PMS_P1;PMS_P2;Temp;Humidity;BMP_temperature;BMP_pressure;BME280_temperature;BME280_humidity;BME280_pressure;Samples;Min_cycle;Max_cycle;Signal;HPM_P1;HPM_P2
2023/09/24 00:02:19;;;;;;;7.22;3.25;;;;;;;11.71;90.32;102218.88;5096062;28;20137;-61
2023/09/24 00:04:45;;;;;;;5.07;3.38;;;;;;;11.65;90.04;102213.41;5096151;28;20099;-62
2023/09/24 00:07:13;;;;;;;7.40;3.50;;;;;;;11.63;90.65;102215.13;5095796;28;20032;-62
2023/09/24 00:09:38;;;;;;;5.00;3.72;;;;;;;11.60;91.52;102215.91;5095738;28;20047;-62
2023/09/24 00:12:04;;;;;;;5.20;3.50;;;;;;;11.58;90.82;102219.41;5094616;28;20478;-62
2023/09/24 00:14:30;;;;;;;9.00;3.60;;;;;;;11.53;91.20;102225.44;5095538;28;20056;-62
2023/09/24 00:16:56;;;;;;;6.63;3.75;;;;;;;11.52;91.79;102223.66;5077335;28;20060;-63
2023/09/24 00:19:23;;;;;;;9.93;3.58;;;;;;;11.60;93.00;102221.22;5095458;28;20028;-61
2023/09/24 00:21:48;;;;;;;7.15;3.85;;;;;;;11.58;92.44;102227.34;5094133;28;20486;-62
2023/09/24 00:24:17;;;;;;;7.45;4.13;;;;;;;11.53;91.63;102241.34;5095439;28;20024;-62
2023/09/24 00:26:43;;;;;;;8.57;3.92;;;;;;;11.53;92.77;102232.50;5095187;28;20048;-62
2023/09/24 00:29:10;;;;;;;6.55;3.92;;;;;;;11.68;94.08;102226.72;5095205;28;20028;-63
2023/09/24 00:31:35;;;;;;;8.75;3.92;;;;;;;11.68;92.98;102232.94;5095543;28;20031;-62
2023/09/24 00:34:00;;;;;;;5.63;3.78;;;;;;;11.65;92.65;102239.88;5095519;28;20024;-63
2023/09/24 00:36:26;;;;;;;8.40;3.65;;;;;;;11.60;92.31;102239.75;5095137;28;20028;-62
2023/09/24 00:38:51;;;;;;;6.43;3.85;;;;;;;11.55;92.38;102241.38;5095142;28;20028;-63
2023/09/24 00:41:17;;;;;;;6.90;4.13;;;;;;;11.49;92.63;102236.81;5094725;28;20028;-61
2023/09/24 00:43:43;;;;;;;8.90;4.03;;;;;;;11.47;93.35;102234.94;5094836;28;20032;-60
2023/09/24 00:46:09;;;;;;;7.88;4.18;;;;;;;11.42;93.87;102237.47;5095121;28;20067;-62
2023/09/24 00:48:36;;;;;;;9.13;4.60;;;;;;;11.36;93.64;102233.75;5094939;28;20035;-62
2023/09/24 00:51:13;;;;;;;8.88;4.90;;;;;;;11.35;94.32;102238.16;5095024;28;20039;-61
2023/09/24 00:53:39;;;;;;;7.03;4.75;;;;;;;11.42;94.48;102242.75;5094890;28;20111;-62
2023/09/24 00:56:04;;;;;;;7.47;4.63;;;;;;;11.43;94.07;102244.53;5094947;28;20086;-62
2023/09/24 00:58:34;;;;;;;8.32;4.95;;;;;;;11.43;93.97;102260.44;5094813;28;20532;-60
2023/09/24 01:01:00;;;;;;;10.85;5.60;;;;;;;11.46;93.81;102260.53;5094819;28;20065;-61
2023/09/24 01:03:28;;;;;;;9.45;5.50;;;;;;;11.50;93.58;102251.81;5094685;28;20481;-62
2023/09/24 01:05:54;;;;;;;8.93;5.00;;;;;;;11.52;93.25;102258.09;5094507;28;20055;-62
2023/09/24 01:08:24;;;;;;;7.80;5.07;;;;;;;11.52;93.24;102246.59;5094431;28;20390;-60
2023/09/24 01:10:50;;;;;;;7.70;3.85;;;;;;;11.53;91.23;102251.94;5093173;28;20024;-61
2023/09/24 01:13:20;;;;;;;9.82;4.35;;;;;;;11.49;90.98;102250.03;5094437;28;20127;-62
2023/09/24 01:15:49;;;;;;;7.15;4.10;;;;;;;11.46;91.02;102254.34;5094849;28;20028;-62
2023/09/24 01:18:16;;;;;;;8.30;4.60;;;;;;;11.42;90.96;102250.69;5094509;28;20028;-60
2023/09/24 01:20:42;;;;;;;9.38;4.40;;;;;;;11.32;90.90;102246.00;5094375;28;20035;-62
2023/09/24 01:23:12;;;;;;;7.15;3.92;;;;;;;11.29;90.39;102249.44;5094092;28;20363;-61
2023/09/24 01:25:40;;;;;;;7.70;4.05;;;;;;;11.25;90.30;102242.25;5094114;28;20488;-61
2023/09/24 01:28:06;;;;;;;6.50;4.18;;;;;;;11.19;90.81;102254.41;5093747;28;20044;-62
2023/09/24 01:30:32;;;;;;;7.03;4.30;;;;;;;11.16;92.04;102256.97;5093948;28;20033;-61
2023/09/24 01:32:58;;;;;;;8.05;4.32;;;;;;;11.16;92.65;102255.22;5092869;28;20036;-61
2023/09/24 01:35:28;;;;;;;6.07;4.18;;;;;;;11.12;93.06;102249.78;5094254;28;20355;-61
2023/09/24 01:38:05;;;;;;;6.05;4.38;;;;;;;11.09;94.21;102245.31;5094253;28;20016;-63
2023/09/24 01:40:32;;;;;;;10.35;4.82;;;;;;;11.08;95.10;102248.78;5093951;28;20169;-61
2023/09/24 01:42:58;;;;;;;7.05;4.45;;;;;;;11.06;95.14;102246.94;5094064;28;20035;-60
2023/09/24 01:45:24;;;;;;;9.15;5.50;;;;;;;11.08;95.74;102246.13;5093648;28;20028;-60
2023/09/24 01:47:50;;;;;;;10.43;5.78;;;;;;;11.13;95.44;102240.97;5094029;28;20039;-62
2023/09/24 01:50:16;;;;;;;7.95;5.55;;;;;;;11.14;94.92;102245.44;5093852;28;20032;-62
2023/09/24 01:52:43;;;;;;;11.23;5.43;;;;;;;11.16;95.24;102238.44;5093832;28;20047;-61
2023/09/24 01:55:08;;;;;;;10.50;5.75;;;;;;;11.12;94.68;102239.19;5091696;28;20024;-62
2023/09/24 01:57:34;;;;;;;11.18;4.90;;;;;;;11.01;93.82;102246.81;5093334;28;20024;-61
2023/09/24 02:00:11;;;;;;;7.00;4.68;;;;;;;11.06;95.33;102245.19;5092120;28;20617;-61
2023/09/24 02:02:40;;;;;;;10.05;5.43;;;;;;;11.00;93.99;102247.63;5093656;28;20036;-61
2023/09/24 02:05:09;;;;;;;10.45;5.90;;;;;;;10.91;94.63;102235.03;5093759;28;20070;-62
2023/09/24 02:07:36;;;;;;;9.93;5.47;;;;;;;10.94;95.27;102239.53;5093410;28;20034;-61
2023/09/24 02:10:02;;;;;;;7.80;5.50;;;;;;;10.96;95.04;102235.16;5093384;28;20032;-63
2023/09/24 02:12:28;;;;;;;10.93;5.65;;;;;;;10.96;95.12;102241.38;5093637;28;20039;-62
2023/09/24 02:14:53;;;;;;;6.72;4.93;;;;;;;10.93;93.82;102243.91;5093203;28;20028;-62
2023/09/24 02:17:19;;;;;;;9.02;5.38;;;;;;;10.89;93.08;102247.31;5093326;28;20111;-61
2023/09/24 02:19:44;;;;;;;9.85;5.10;;;;;;;10.83;93.37;102248.84;5093428;28;20028;-62
2023/09/24 02:22:11;;;;;;;9.18;5.60;;;;;;;10.83;94.21;102256.78;5093600;28;20039;-62
2023/09/24 02:24:38;;;;;;;8.95;5.20;;;;;;;10.80;94.58;102257.59;5093457;28;20036;-62
2023/09/24 02:27:04;;;;;;;12.23;5.53;;;;;;;10.77;94.21;102260.13;5092899;28;20501;-62
2023/09/24 02:29:29;;;;;;;9.57;5.30;;;;;;;10.71;94.49;102262.59;5093088;28;20069;-61
2023/09/24 02:31:54;;;;;;;8.48;5.15;;;;;;;10.64;94.80;102264.13;5093228;28;20452;-61
2023/09/24 02:34:20;;;;;;;7.40;5.50;;;;;;;10.60;94.65;102270.16;5093137;28;20028;-62
2023/09/24 02:36:45;;;;;;;9.13;5.13;;;;;;;10.56;94.38;102268.25;5093184;28;20020;-61
2023/09/24 02:39:10;;;;;;;11.98;5.40;;;;;;;10.59;95.04;102270.09;5093197;28;20036;-62
2023/09/24 02:41:36;;;;;;;9.27;4.93;;;;;;;10.61;95.04;102260.47;5093055;28;20061;-62
2023/09/24 02:44:02;;;;;;;9.32;5.10;;;;;;;10.61;94.16;102269.28;5092877;28;20386;-62
2023/09/24 02:46:27;;;;;;;7.28;4.50;;;;;;;10.55;92.24;102266.47;5093012;28;20052;-61
2023/09/24 02:48:53;;;;;;;8.27;4.93;;;;;;;10.52;93.19;102272.53;5093241;28;20107;-62
2023/09/24 02:51:19;;;;;;;9.50;5.10;;;;;;;10.51;94.42;102272.50;5093259;28;20421;-63
2023/09/24 02:53:46;;;;;;;9.85;4.88;;;;;;;10.49;94.97;102267.16;5093152;28;20063;-62
2023/09/24 02:56:13;;;;;;;7.63;5.28;;;;;;;10.47;94.53;102262.66;5092984;28;20036;-63
2023/09/24 02:58:39;;;;;;;9.55;4.95;;;;;;;10.44;95.07;102267.81;5092840;28;20107;-62
2023/09/24 03:01:14;;;;;;;8.82;4.88;;;;;;;10.39;95.15;102275.59;5092768;28;20461;-62
2023/09/24 03:03:40;;;;;;;10.18;5.40;;;;;;;10.38;95.16;102265.88;5092955;28;20524;-61
2023/09/24 03:06:06;;;;;;;6.88;4.97;;;;;;;10.36;95.40;102262.28;5094745;28;20024;-61
2023/09/24 03:08:32;;;;;;;8.63;4.85;;;;;;;10.34;94.97;102279.84;5096898;28;20073;-61
2023/09/24 03:10:57;;;;;;;8.13;5.43;;;;;;;10.31;95.15;102277.06;5096747;28;20020;-63
2023/09/24 03:13:23;;;;;;;10.90;5.03;;;;;;;10.28;94.95;102277.88;5097035;28;20077;-60
2023/09/24 03:15:48;;;;;;;8.40;5.05;;;;;;;10.26;94.96;102276.03;5096642;28;20031;-62
2023/09/24 03:18:13;;;;;;;10.13;4.75;;;;;;;10.25;94.78;102280.41;5096689;28;20069;-63
2023/09/24 03:20:39;;;;;;;7.22;4.80;;;;;;;10.23;95.18;102279.41;5096952;28;20028;-62
2023/09/24 03:23:09;;;;;;;10.20;4.95;;;;;;;10.18;94.77;102281.00;5096566;28;20111;-62
2023/09/24 03:25:35;;;;;;;9.48;4.80;;;;;;;10.16;95.06;102280.06;5096874;28;20063;-63
2023/09/24 03:28:01;;;;;;;8.27;4.63;;;;;;;10.14;95.20;102287.00;5096199;28;20056;-62
2023/09/24 03:30:27;;;;;;;12.02;4.97;;;;;;;10.12;94.42;102286.06;5096492;28;20024;-61
2023/09/24 03:32:53;;;;;;;7.25;4.68;;;;;;;10.10;94.99;102290.38;5096355;28;20028;-63
2023/09/24 03:35:26;;;;;;;8.15;5.25;;;;;;;10.17;96.05;102299.44;5096554;28;20331;-62
2023/09/24 03:37:52;;;;;;;8.57;5.07;;;;;;;10.19;96.45;102296.03;5096043;28;20383;-61
2023/09/24 03:40:19;;;;;;;9.32;5.07;;;;;;;10.10;96.72;102287.75;5096445;28;20047;-62
2023/09/24 03:42:45;;;;;;;10.18;6.38;;;;;;;10.20;96.13;102295.19;5096093;28;20496;-61
2023/09/24 03:45:16;;;;;;;9.63;6.18;;;;;;;10.26;96.48;102297.16;5095961;28;20036;-60
2023/09/24 03:47:42;;;;;;;12.00;5.90;;;;;;;10.24;96.36;102296.19;5096338;28;20122;-61
2023/09/24 03:50:16;;;;;;;9.85;6.72;;;;;;;10.24;96.63;102301.47;5096019;28;20165;-61
2023/09/24 03:52:43;;;;;;;8.32;6.05;;;;;;;10.27;96.77;102309.53;5096283;28;20074;-62
2023/09/24 03:55:09;;;;;;;9.35;6.20;;;;;;;10.26;96.40;102313.91;5096269;28;20043;-62
2023/09/24 03:57:35;;;;;;;7.60;5.85;;;;;;;10.27;96.70;102310.41;5094427;28;20032;-61
2023/09/24 04:00:01;;;;;;;10.50;6.18;;;;;;;10.27;96.00;102309.53;5095726;28;20074;-62
2023/09/24 04:02:26;;;;;;;8.45;5.32;;;;;;;10.31;96.11;102308.78;5095689;28;20024;-62
2023/09/24 04:04:52;;;;;;;10.25;5.10;;;;;;;10.31;95.93;102314.06;5096025;28;20110;-63
2023/09/24 04:07:17;;;;;;;8.65;4.70;;;;;;;10.33;95.67;102308.84;5095829;28;20028;-61
2023/09/24 04:09:43;;;;;;;9.10;5.15;;;;;;;10.28;95.82;102313.97;5095632;28;20020;-61
2023/09/24 04:12:09;;;;;;;7.53;4.45;;;;;;;10.26;95.51;102319.19;5095642;28;20056;-62
2023/09/24 04:14:35;;;;;;;8.70;4.63;;;;;;;10.18;94.77;102320.63;5095601;28;20077;-61
2023/09/24 04:17:02;;;;;;;7.95;4.60;;;;;;;10.16;95.61;102324.06;5094726;28;20036;-63
2023/09/24 04:19:29;;;;;;;7.45;4.70;;;;;;;10.08;95.16;102326.44;5094255;28;20035;-61
2023/09/24 04:21:54;;;;;;;6.15;4.43;;;;;;;10.11;95.42;102325.66;5095682;28;20036;-62
2023/09/24 04:24:23;;;;;;;7.20;4.15;;;;;;;10.11;95.72;102323.91;5095390;28;20032;-61
2023/09/24 04:26:50;;;;;;;6.57;4.07;;;;;;;10.26;96.52;102319.19;5095015;28;20128;-62
2023/09/24 04:29:16;;;;;;;7.95;4.40;;;;;;;10.30;96.41;102329.88;5095165;28;20509;-62
2023/09/24 04:31:42;;;;;;;7.57;4.50;;;;;;;10.32;95.44;102326.47;5095459;28;20052;-60
2023/09/24 04:34:09;;;;;;;6.05;4.20;;;;;;;10.34;95.37;102329.16;5095512;28;20068;-62
2023/09/24 04:36:35;;;;;;;7.78;4.40;;;;;;;10.27;95.04;102323.63;5095309;28;20370;-62
2023/09/24 04:39:00;;;;;;;7.65;4.50;;;;;;;10.19;95.39;102332.09;5095407;28;20103;-60
2023/09/24 04:41:26;;;;;;;6.03;4.35;;;;;;;10.11;96.03;102334.47;5093810;28;20039;-61
2023/09/24 04:43:52;;;;;;;6.93;4.50;;;;;;;10.07;95.68;102332.56;5095004;28;20055;-62
2023/09/24 04:46:18;;;;;;;7.28;4.10;;;;;;;10.02;95.40;102334.09;5095081;28;20032;-62
2023/09/24 04:48:43;;;;;;;6.63;4.20;;;;;;;9.99;95.13;102340.19;5094798;28;20063;-61
2023/09/24 04:51:09;;;;;;;7.13;3.90;;;;;;;10.09;96.62;102333.50;5094920;28;20017;-61
2023/09/24 04:53:35;;;;;;;8.10;3.92;;;;;;;10.13;96.04;102337.16;5093453;28;20039;-61
2023/09/24 04:56:06;;;;;;;7.27;4.20;;;;;;;10.06;95.95;102337.75;5094665;28;20366;-62
2023/09/24 04:58:31;;;;;;;6.65;4.35;;;;;;;9.98;96.87;102329.59;5094471;28;20070;-61
2023/09/24 05:01:04;;;;;;;7.03;4.25;;;;;;;9.89;96.99;102340.72;5093267;28;20028;-61
2023/09/24 05:03:31;;;;;;;7.47;4.32;;;;;;;9.85;97.14;102338.78;5094544;28;20089;-60
2023/09/24 05:05:56;;;;;;;5.60;3.83;;;;;;;9.80;97.15;102329.78;5094784;28;20257;-63
2023/09/24 05:08:22;;;;;;;7.47;4.22;;;;;;;9.78;97.59;102334.09;5094470;28;20020;-61
2023/09/24 05:10:49;;;;;;;8.48;4.50;;;;;;;9.75;98.06;102337.53;5076247;28;20028;-60
2023/09/24 05:13:14;;;;;;;8.90;4.50;;;;;;;9.64;98.19;102330.06;5094370;28;20493;-60
2023/09/24 05:15:40;;;;;;;8.80;4.70;;;;;;;9.63;98.78;102344.97;5094124;28;20114;-61
2023/09/24 05:18:05;;;;;;;6.38;4.55;;;;;;;9.52;99.04;102339.28;5093943;28;20067;-61
2023/09/24 05:20:31;;;;;;;7.93;4.30;;;;;;;9.60;98.96;102355.44;5093606;28;20362;-62
2023/09/24 05:22:56;;;;;;;5.93;4.00;;;;;;;9.74;99.07;102358.59;5093637;28;20484;-61
2023/09/24 05:25:22;;;;;;;8.85;4.20;;;;;;;9.83;98.64;102351.03;5092160;28;20047;-62
2023/09/24 05:27:47;;;;;;;8.73;4.30;;;;;;;9.88;96.94;102353.81;5092956;28;20048;-60
2023/09/24 05:30:13;;;;;;;6.93;4.10;;;;;;;9.97;97.30;102359.44;5093414;28;20505;-61
2023/09/24 05:32:38;;;;;;;9.52;4.78;;;;;;;9.96;96.76;102360.28;5093932;28;20044;-62
2023/09/24 05:35:04;;;;;;;6.47;4.03;;;;;;;9.92;96.27;102363.66;5093657;28;20028;-62
2023/09/24 05:37:29;;;;;;;12.80;4.50;;;;;;;9.90;96.30;102366.25;5093674;28;20539;-62
2023/09/24 05:39:56;;;;;;;6.30;3.92;;;;;;;9.86;96.28;102368.72;5092376;28;20020;-61
2023/09/24 05:42:21;;;;;;;10.55;3.85;;;;;;;9.85;96.83;102378.41;5093630;28;20103;-61
2023/09/24 05:44:46;;;;;;;7.65;4.07;;;;;;;9.88;96.91;102374.94;5093551;28;20111;-61
2023/09/24 05:47:12;;;;;;;7.90;4.10;;;;;;;9.88;96.65;102380.22;5093389;28;20074;-61
2023/09/24 05:49:37;;;;;;;10.77;4.50;;;;;;;9.94;96.72;102383.13;5093526;28;20397;-61
2023/09/24 05:52:03;;;;;;;8.13;4.22;;;;;;;10.02;97.05;102390.50;5093175;28;20034;-61
2023/09/24 05:54:29;;;;;;;6.43;4.20;;;;;;;10.19;97.30;102390.19;5093474;28;20020;-61
2023/09/24 05:56:54;;;;;;;6.00;4.00;;;;;;;10.22;96.66;102393.84;5092882;28;20440;-62
2023/09/24 05:59:20;;;;;;;7.95;4.32;;;;;;;10.38;96.56;102391.81;5093074;28;20389;-61
2023/09/24 06:01:45;;;;;;;7.00;4.07;;;;;;;10.47;96.03;102393.03;5093352;28;20028;-62
2023/09/24 06:04:10;;;;;;;7.95;4.20;;;;;;;10.57;96.30;102398.66;5093256;28;20085;-63
2023/09/24 06:06:36;;;;;;;7.78;4.28;;;;;;;10.68;96.27;102394.66;5092149;28;20028;-60
2023/09/24 06:09:09;;;;;;;6.40;4.30;;;;;;;10.84;95.55;102397.00;5093333;28;20028;-60
2023/09/24 06:11:37;;;;;;;7.07;4.32;;;;;;;11.03;94.99;102395.88;5093236;28;20104;-61
2023/09/24 06:14:08;;;;;;;7.95;4.45;;;;;;;11.13;94.19;102391.78;5092978;28;20028;-61
2023/09/24 06:16:36;;;;;;;6.97;4.65;;;;;;;11.22;93.20;102393.00;5093106;28;20031;-61
2023/09/24 06:19:03;;;;;;;7.35;4.35;;;;;;;11.24;93.41;102393.94;5093070;28;20024;-61
2023/09/24 06:21:28;;;;;;;7.45;4.47;;;;;;;11.33;93.99;102388.03;5091634;28;20541;-62
2023/09/24 06:23:55;;;;;;;7.45;4.47;;;;;;;11.53;93.60;102399.28;5092870;28;20086;-62
2023/09/24 06:26:20;;;;;;;7.93;4.40;;;;;;;11.76;92.23;102405.28;5092808;28;20115;-61
2023/09/24 06:28:46;;;;;;;9.02;4.60;;;;;;;11.70;91.59;102392.75;5092481;28;20181;-61
2023/09/24 06:31:11;;;;;;;7.55;4.25;;;;;;;11.82;91.82;102410.78;5092752;28;20035;-61
2023/09/24 06:33:37;;;;;;;8.90;4.20;;;;;;;11.94;91.36;102404.97;5092604;28;20069;-61
2023/09/24 06:36:03;;;;;;;8.05;4.47;;;;;;;12.03;90.86;102414.13;5092789;28;20024;-61
2023/09/24 06:38:29;;;;;;;5.93;3.85;;;;;;;12.21;90.91;102411.09;5092641;28;20028;-60
2023/09/24 06:41:03;;;;;;;13.07;4.28;;;;;;;12.14;89.97;102408.22;5092008;28;20032;-61
2023/09/24 06:43:30;;;;;;;8.82;5.00;;;;;;;11.99;89.81;102420.19;5092808;28;20034;-61
2023/09/24 06:45:56;;;;;;;7.97;3.78;;;;;;;11.95;90.78;102420.03;5092410;28;20509;-62
2023/09/24 06:48:25;;;;;;;7.88;4.28;;;;;;;12.01;90.93;102417.56;5092738;28;20078;-63
2023/09/24 06:50:53;;;;;;;7.55;4.15;;;;;;;12.19;90.49;102418.09;5092597;28;20055;-61
2023/09/24 06:53:19;;;;;;;8.93;4.05;;;;;;;12.26;90.26;102427.13;5092738;28;20062;-62
2023/09/24 06:55:44;;;;;;;8.90;4.07;;;;;;;12.41;89.83;102426.66;5092545;28;20032;-62
2023/09/24 06:58:10;;;;;;;8.50;3.88;;;;;;;12.49;89.77;102422.47;5092209;28;20301;-63
2023/09/24 07:00:35;;;;;;;8.15;3.78;;;;;;;12.59;89.36;102426.28;5092358;28;20059;-63
2023/09/24 07:03:00;;;;;;;9.77;4.32;;;;;;;12.65;89.08;102427.38;5092749;28;20020;-61
2023/09/24 07:05:26;;;;;;;13.00;4.05;;;;;;;12.82;88.88;102429.59;5092717;28;20028;-62
2023/09/24 07:07:52;;;;;;;7.63;3.72;;;;;;;12.90;88.37;102434.25;5092221;28;20392;-61
2023/09/24 07:10:20;;;;;;;8.02;3.88;;;;;;;13.06;89.43;102438.22;5092523;28;20032;-61
2023/09/24 07:12:46;;;;;;;7.68;3.92;;;;;;;13.20;88.70;102425.28;5092206;28;20028;-62
2023/09/24 07:15:13;;;;;;;8.57;3.92;;;;;;;13.31;88.36;102422.91;5092177;28;20046;-62
2023/09/24 07:17:38;;;;;;;8.10;3.90;;;;;;;13.52;87.16;102428.75;5092043;28;20020;-61
2023/09/24 07:20:05;;;;;;;6.78;3.80;;;;;;;13.77;87.11;102433.78;5092156;28;20111;-62
2023/09/24 07:22:30;;;;;;;9.75;3.95;;;;;;;13.93;85.68;102439.44;5092225;28;20060;-62
2023/09/24 07:24:56;;;;;;;7.75;4.15;;;;;;;14.05;85.11;102439.72;5092472;28;20052;-62
2023/09/24 07:27:24;;;;;;;9.98;3.92;;;;;;;14.27;84.68;102443.75;5091791;28;20557;-61
2023/09/24 07:29:49;;;;;;;9.02;3.97;;;;;;;14.49;83.37;102443.34;5092231;28;20074;-62
2023/09/24 07:32:14;;;;;;;11.18;3.70;;;;;;;14.65;83.41;102449.88;5091993;28;20171;-63
2023/09/24 07:34:40;;;;;;;10.05;4.03;;;;;;;14.70;84.13;102449.97;5092014;28;20032;-61
2023/09/24 07:37:08;;;;;;;8.32;3.78;;;;;;;14.73;82.96;102452.66;5092217;28;20062;-60
2023/09/24 07:39:36;;;;;;;7.45;4.00;;;;;;;14.81;81.02;102464.34;5092280;28;20115;-62
2023/09/24 07:42:02;;;;;;;8.45;3.90;;;;;;;14.89;82.29;102445.88;5092117;28;20024;-61
2023/09/24 07:44:27;;;;;;;10.20;4.20;;;;;;;15.14;81.75;102449.88;5090799;28;20024;-62
2023/09/24 07:46:54;;;;;;;13.05;3.90;;;;;;;15.34;80.45;102447.56;5092184;28;20481;-62
2023/09/24 07:49:19;;;;;;;8.10;3.75;;;;;;;15.59;79.94;102462.16;5092057;28;20020;-62
2023/09/24 07:51:44;;;;;;;8.13;3.70;;;;;;;15.72;78.93;102459.78;5092602;28;20439;-61
2023/09/24 07:54:10;;;;;;;10.57;3.90;;;;;;;15.89;77.10;102467.13;5094229;28;20028;-63
2023/09/24 07:56:40;;;;;;;7.13;3.90;;;;;;;15.90;77.12;102459.16;5095727;28;20575;-63
2023/09/24 07:59:06;;;;;;;9.18;3.80;;;;;;;16.08;77.60;102465.63;5095650;28;20062;-61
2023/09/24 08:01:32;;;;;;;7.43;3.70;;;;;;;16.16;76.40;102462.19;5095369;28;20104;-64
2023/09/24 08:03:57;;;;;;;8.25;3.90;;;;;;;16.28;76.12;102458.78;5093954;28;20369;-62
2023/09/24 08:06:23;;;;;;;9.10;3.70;;;;;;;16.35;74.98;102471.31;5095573;28;20111;-62
2023/09/24 08:08:49;;;;;;;7.70;3.40;;;;;;;16.44;74.50;102457.19;5095445;28;20063;-61
2023/09/24 08:11:14;;;;;;;6.72;3.45;;;;;;;16.58;74.40;102463.63;5094742;28;20025;-63
2023/09/24 08:13:39;;;;;;;10.00;3.80;;;;;;;16.73;74.07;102465.59;5095355;28;20073;-64
2023/09/24 08:16:05;;;;;;;7.72;3.70;;;;;;;16.80;72.80;102466.56;5094769;28;20082;-62
2023/09/24 08:18:30;;;;;;;10.30;3.85;;;;;;;16.85;72.20;102465.72;5095022;28;20034;-61
2023/09/24 08:20:56;;;;;;;10.07;3.42;;;;;;;16.88;72.44;102468.44;5095188;28;20110;-62
2023/09/24 08:23:23;;;;;;;12.45;3.30;;;;;;;17.06;70.11;102469.50;5095400;28;20040;-60
2023/09/24 08:25:50;;;;;;;5.45;3.22;;;;;;;17.03;70.29;102467.69;5094869;28;20024;-61
2023/09/24 08:28:17;;;;;;;9.73;3.58;;;;;;;17.05;70.79;102470.38;5094562;28;20123;-62
2023/09/24 08:30:43;;;;;;;7.53;3.22;;;;;;;17.10;70.44;102472.22;5094891;28;20024;-62
2023/09/24 08:33:09;;;;;;;8.13;3.53;;;;;;;17.10;72.10;102465.97;5095037;28;20169;-62
2023/09/24 08:35:36;;;;;;;6.95;3.10;;;;;;;17.35;71.88;102462.66;5095066;28;20024;-61
2023/09/24 08:38:02;;;;;;;7.07;3.17;;;;;;;17.55;70.88;102461.91;5094764;28;20028;-62
2023/09/24 08:40:32;;;;;;;8.60;3.25;;;;;;;17.74;70.14;102472.78;5094755;28;20024;-62
2023/09/24 08:42:58;;;;;;;8.30;2.95;;;;;;;17.97;70.90;102469.38;5094929;28;20047;-63
2023/09/24 08:45:26;;;;;;;5.70;2.95;;;;;;;18.21;68.94;102477.53;5094592;28;20032;-63
2023/09/24 08:47:52;;;;;;;7.05;3.05;;;;;;;18.44;68.11;102477.66;5094774;28;20035;-61
2023/09/24 08:50:18;;;;;;;7.13;3.17;;;;;;;18.59;66.43;102475.94;5094724;28;20116;-62
2023/09/24 08:52:46;;;;;;;7.40;3.22;;;;;;;18.67;65.68;102475.06;5094649;28;20099;-60
2023/09/24 08:55:13;;;;;;;8.80;3.00;;;;;;;18.64;65.41;102466.13;5094580;28;20032;-62
2023/09/24 08:57:42;;;;;;;6.57;2.78;;;;;;;18.79;64.58;102470.66;5093925;28;20028;-62
2023/09/24 09:00:12;;;;;;;6.97;2.75;;;;;;;19.25;66.47;102471.63;5094583;28;20031;-61
2023/09/24 09:02:41;;;;;;;6.97;2.90;;;;;;;19.37;62.88;102474.31;5093739;28;20039;-62
2023/09/24 09:05:21;;;;;;;6.18;2.53;;;;;;;19.31;62.59;102476.09;5094289;28;20024;-61
2023/09/24 09:08:04;;;;;;;6.68;2.50;;;;;;;19.51;63.17;102467.16;5093147;28;20103;-62
2023/09/24 09:10:36;;;;;;;5.90;2.60;;;;;;;19.58;62.56;102467.19;5094202;28;20062;-63
2023/09/24 09:13:09;;;;;;;6.57;2.60;;;;;;;19.51;62.69;102469.84;5093595;28;20035;-62
2023/09/24 09:15:38;;;;;;;4.50;2.33;;;;;;;19.69;62.10;102463.59;5093988;28;20074;-64
2023/09/24 09:18:03;;;;;;;5.57;2.40;;;;;;;19.58;61.11;102454.66;5093882;28;20032;-62
2023/09/24 09:20:43;;;;;;;7.38;2.47;;;;;;;19.71;62.50;102459.16;5110874;28;20023;-62
2023/09/24 09:23:13;;;;;;;5.75;2.75;;;;;;;19.86;60.07;102454.66;5114322;28;20111;-62
2023/09/24 09:25:54;;;;;;;5.43;2.47;;;;;;;20.22;60.09;102449.19;5114303;28;20132;-62
2023/09/24 09:28:21;;;;;;;4.53;2.35;;;;;;;20.30;59.52;102443.78;5113737;28;20092;-63
2023/09/24 09:31:15;;;;;;;4.70;2.20;;;;;;;20.68;58.25;102450.78;5113679;28;20035;-62
2023/09/24 09:33:43;;;;;;;4.85;2.30;;;;;;;20.53;58.62;102442.81;5096288;28;20043;-61
2023/09/24 09:36:27;;;;;;;6.75;2.50;;;;;;;20.48;59.32;102434.78;5112865;28;20023;-61
2023/09/24 09:38:53;;;;;;;6.82;2.25;;;;;;;20.62;59.59;102434.72;5114028;28;20070;-63
2023/09/24 09:41:19;;;;;;;5.95;2.20;;;;;;;20.55;58.22;102428.47;5113962;28;20425;-64
2023/09/24 09:43:47;;;;;;;5.63;2.28;;;;;;;20.41;57.67;102424.94;5114168;28;20036;-62
2023/09/24 09:46:17;;;;;;;5.30;2.40;;;;;;;20.48;57.96;102429.41;5113891;28;20020;-61
2023/09/24 09:48:48;;;;;;;5.78;2.50;;;;;;;20.54;58.23;102404.31;5113826;28;20380;-61
2023/09/24 09:51:18;;;;;;;10.27;2.42;;;;;;;20.63;58.09;102421.25;5113655;28;20092;-62
2023/09/24 09:53:45;;;;;;;6.15;2.47;;;;;;;20.69;56.94;102417.66;5113596;28;20020;-63
2023/09/24 09:56:11;;;;;;;5.35;2.50;;;;;;;20.70;57.38;102417.66;5113461;28;20020;-61
2023/09/24 09:58:38;;;;;;;6.40;2.30;;;;;;;20.67;56.18;102408.72;5113753;28;20032;-63
2023/09/24 10:01:06;;;;;;;5.85;2.33;;;;;;;20.71;57.37;102408.69;5113727;28;20050;-63
2023/09/24 10:03:38;;;;;;;5.40;2.42;;;;;;;20.81;58.30;102412.19;5113618;28;20361;-64
2023/09/24 10:06:06;;;;;;;5.07;2.20;;;;;;;20.83;56.81;102406.81;5112214;28;20027;-63
2023/09/24 10:08:49;;;;;;;4.68;2.25;;;;;;;21.10;58.35;102398.53;5113723;28;20031;-63
2023/09/24 10:11:30;;;;;;;8.95;2.55;;;;;;;21.26;57.24;102397.50;5113491;28;20035;-62
2023/09/24 10:13:57;;;;;;;4.90;2.25;;;;;;;21.22;54.63;102398.44;5113138;28;20051;-62
2023/09/24 10:16:25;;;;;;;4.65;2.03;;;;;;;21.26;55.03;102389.44;5112714;28;20403;-61
2023/09/24 10:19:03;;;;;;;7.13;2.30;;;;;;;21.05;53.41;102394.13;5113254;28;20080;-63
2023/09/24 10:21:31;;;;;;;5.45;2.33;;;;;;;21.20;55.39;102397.59;5113599;28;20027;-62
2023/09/24 10:24:28;;;;;;;3.75;2.10;;;;;;;20.91;55.11;102388.84;5113450;28;20052;-61
2023/09/24 10:27:05;;;;;;;4.82;2.15;;;;;;;20.97;55.33;102388.78;5112966;28;20032;-62
2023/09/24 10:29:50;;;;;;;6.75;2.42;;;;;;;21.20;56.16;102383.25;5111790;28;20047;-64
2023/09/24 10:32:17;;;;;;;4.43;1.98;;;;;;;21.30;54.29;102387.63;5113001;28;20042;-63
2023/09/24 10:34:55;;;;;;;6.05;2.40;;;;;;;21.43;54.22;102375.88;5112950;28;20396;-63
2023/09/24 10:37:39;;;;;;;7.20;2.40;;;;;;;21.90;54.49;102377.16;5112924;28;20027;-62
2023/09/24 10:40:16;;;;;;;5.10;2.17;;;;;;;21.94;51.95;102384.28;5097500;28;20055;-63
2023/09/24 10:42:43;;;;;;;5.70;2.08;;;;;;;21.88;51.00;102378.97;5092718;28;20036;-62
2023/09/24 10:45:08;;;;;;;4.65;2.00;;;;;;;21.73;50.23;102371.09;5092553;28;20024;-62
2023/09/24 10:47:37;;;;;;;5.97;2.22;;;;;;;21.64;49.82;102380.16;5099118;28;20030;-62
2023/09/24 10:50:07;;;;;;;4.25;2.20;;;;;;;21.64;51.20;102373.88;5101267;28;20540;-63
2023/09/24 10:52:52;;;;;;;5.03;2.30;;;;;;;21.55;51.14;102374.88;5096821;28;20549;-64
2023/09/24 10:55:30;;;;;;;3.65;1.90;;;;;;;21.65;50.13;102376.53;5100192;28;20012;-63
2023/09/24 10:57:58;;;;;;;4.13;2.03;;;;;;;21.74;49.08;102378.25;5072174;28;20066;-62
2023/09/24 11:00:27;;;;;;;6.57;2.05;;;;;;;21.86;47.96;102375.41;5071916;28;20393;-64
2023/09/24 11:02:57;;;;;;;4.10;2.13;;;;;;;21.98;47.95;102367.19;5072257;28;20430;-63
2023/09/24 11:05:23;;;;;;;5.50;2.25;;;;;;;21.98;46.51;102369.00;5071664;28;20037;-62
2023/09/24 11:07:49;;;;;;;4.45;1.95;;;;;;;21.92;47.58;102359.19;5071973;28;20033;-62
2023/09/24 11:10:18;;;;;;;4.35;2.17;;;;;;;22.06;48.92;102375.19;5071816;28;20029;-61
2023/09/24 11:12:55;;;;;;;4.80;2.38;;;;;;;22.00;48.27;102370.75;5072388;28;20025;-63
2023/09/24 11:15:23;;;;;;;4.80;2.20;;;;;;;22.00;48.17;102367.16;5072126;28;20474;-64
2023/09/24 11:17:50;;;;;;;4.13;2.05;;;;;;;21.87;47.67;102368.22;5072008;28;20071;-63
2023/09/24 11:20:17;;;;;;;4.18;1.92;;;;;;;21.96;48.68;102355.53;5072075;28;20056;-63
2023/09/24 11:22:43;;;;;;;5.38;2.28;;;;;;;22.15;47.88;102352.66;5071971;28;20528;-61
2023/09/24 11:25:11;;;;;;;6.82;2.15;;;;;;;22.37;46.87;102356.84;5071816;28;20021;-64
2023/09/24 11:27:48;;;;;;;5.85;2.20;;;;;;;22.39;47.28;102352.31;5100012;28;20127;-62